createdAt,value
2022-12-22T00:01:59.235Z,97.04
2022-12-22T00:04:44.387Z,97.42
2022-12-22T00:07:29.706Z,97.21
2022-12-22T00:10:14.744Z,97.32
2022-12-22T00:13:01.045Z,97.17
2022-12-22T00:15:49.885Z,96.94
2022-12-22T00:18:35.725Z,96.76
2022-12-22T00:21:21.048Z,97.27
2022-12-22T00:24:08.861Z,97.25
2022-12-22T00:26:54.619Z,97.47
2022-12-22T00:29:40.381Z,96.89
2022-12-22T00:32:33.939Z,97.50
2022-12-22T00:35:20.055Z,97.12
2022-12-22T00:38:04.963Z,97.81
2022-12-22T00:40:50.003Z,97.18
2022-12-22T00:43:34.893Z,97.00
2022-12-22T00:46:24.173Z,97.08
2022-12-22T00:49:09.648Z,97.33
2022-12-22T00:51:55.025Z,96.90
2022-12-22T00:54:43.985Z,97.49
2022-12-22T00:57:37.235Z,97.19
2022-12-22T01:00:25.195Z,97.32
2022-12-22T01:03:10.578Z,97.36
2022-12-22T01:05:56.023Z,97.54
2022-12-22T01:08:41.522Z,97.62
2022-12-22T01:11:27.728Z,97.74
2022-12-22T01:14:12.819Z,97.38
2022-12-22T01:16:57.629Z,97.34
2022-12-22T01:19:46.728Z,97.64
2022-12-22T01:22:37.398Z,97.87
2022-12-22T01:25:30.383Z,97.91
2022-12-22T01:28:15.981Z,97.87
2022-12-22T01:31:01.520Z,97.86
2022-12-22T01:33:47.307Z,98.24
2022-12-22T01:36:32.474Z,97.99
2022-12-22T01:39:18.321Z,97.94
2022-12-22T01:42:04.063Z,98.29
2022-12-22T01:44:49.279Z,98.40
2022-12-22T01:47:46.615Z,98.47
2022-12-22T01:50:34.022Z,98.14
2022-12-22T01:53:23.672Z,98.31
2022-12-22T01:56:11.565Z,98.05
2022-12-22T01:59:02.520Z,98.84
2022-12-22T02:01:51.419Z,98.51
2022-12-22T02:04:38.880Z,98.45
2022-12-22T02:07:38.765Z,98.17
2022-12-22T02:10:45.024Z,98.69
2022-12-22T02:13:53.004Z,99.04
2022-12-22T02:17:03.734Z,98.75
2022-12-22T02:19:52.355Z,98.65
2022-12-22T02:22:49.059Z,98.54
2022-12-22T02:25:41.396Z,98.61
2022-12-22T02:28:30.041Z,98.94
2022-12-22T02:31:16.309Z,98.80
2022-12-22T02:34:01.234Z,99.40
2022-12-22T02:37:12.372Z,99.09
2022-12-22T02:40:19.718Z,98.86
2022-12-22T02:43:30.378Z,99.65
2022-12-22T02:46:29.067Z,98.88
2022-12-22T02:49:19.627Z,99.68
2022-12-22T02:52:10.333Z,99.56
2022-12-22T02:54:57.822Z,100.00
2022-12-22T02:57:43.281Z,99.30
2022-12-22T03:00:31.111Z,100.00
2022-12-22T03:03:16.616Z,99.52
2022-12-22T03:06:01.536Z,100.00
2022-12-22T03:08:46.444Z,99.56
2022-12-22T03:11:32.300Z,100.00
2022-12-22T03:14:19.050Z,99.80
2022-12-22T03:17:05.408Z,99.57
2022-12-22T03:19:50.676Z,100.00
2022-12-22T03:22:35.881Z,100.00
2022-12-22T03:25:28.219Z,100.00
2022-12-22T03:27:54.896Z,100.00
2022-12-22T03:30:21.487Z,100.00
2022-12-22T03:32:48.053Z,100.00
2022-12-22T03:35:16.455Z,100.00
2022-12-22T03:37:43.016Z,100.00
2022-12-22T03:40:10.066Z,100.00
2022-12-22T03:42:55.064Z,100.00
2022-12-22T03:45:40.005Z,100.00
2022-12-22T17:40:44.300Z,100.00
2022-12-22T17:43:15.859Z,100.00
2022-12-22T17:45:52.404Z,100.00
2022-12-22T17:48:19.115Z,100.00
2022-12-22T17:50:50.248Z,100.00
2022-12-22T17:53:21.283Z,100.00
2022-12-22T17:58:37.401Z,100.00
2022-12-22T18:01:04.189Z,100.00
2022-12-22T18:03:30.816Z,100.00
2022-12-22T18:05:59.193Z,100.00
2022-12-22T18:08:25.813Z,100.00
2022-12-22T18:10:54.307Z,100.00
2022-12-22T18:13:25.956Z,100.00
2022-12-22T18:15:53.486Z,100.00
2022-12-22T18:18:20.990Z,100.00
2022-12-22T18:21:06.951Z,100.00
2022-12-22T18:23:34.641Z,100.00
2022-12-22T18:26:01.344Z,100.00
2022-12-22T18:28:37.805Z,100.00
2022-12-22T18:31:04.495Z,100.00
2022-12-22T18:33:31.126Z,100.00
2022-12-22T18:36:04.345Z,100.00
2022-12-22T18:38:37.667Z,100.00
2022-12-22T18:41:06.190Z,100.00
2022-12-22T18:43:32.914Z,100.00
2022-12-22T18:46:01.248Z,100.00
2022-12-22T18:48:28.000Z,100.00
2022-12-22T18:50:54.589Z,100.00
2022-12-22T18:53:32.140Z,100.00
2022-12-22T18:55:59.553Z,100.00
2022-12-22T18:58:27.022Z,100.00
2022-12-22T19:00:55.207Z,100.00
2022-12-22T19:03:25.533Z,100.00
2022-12-22T19:05:55.085Z,100.00
2022-12-22T19:08:25.137Z,100.00
2022-12-22T19:10:54.499Z,100.00
2022-12-22T19:13:27.201Z,100.00
2022-12-22T19:15:54.801Z,100.00
2022-12-22T19:18:26.459Z,100.00
2022-12-22T19:20:58.688Z,100.00
2022-12-22T19:23:26.257Z,100.00
2022-12-22T19:25:56.086Z,100.00
2022-12-22T19:28:31.422Z,100.00
2022-12-22T19:30:58.338Z,100.00
2022-12-22T19:33:29.442Z,100.00
2022-12-22T19:36:01.761Z,100.00
2022-12-22T19:38:30.387Z,100.00
2022-12-22T19:41:02.094Z,100.00
2022-12-22T19:43:30.509Z,100.00
2022-12-22T19:45:57.323Z,100.00
2022-12-22T19:48:25.989Z,100.00
2022-12-22T19:50:55.769Z,100.00
2022-12-22T19:53:22.742Z,100.00
2022-12-22T19:55:52.980Z,100.00
2022-12-22T19:58:31.659Z,100.00
2022-12-22T20:00:58.788Z,100.00
2022-12-22T20:03:26.305Z,100.00
2022-12-22T20:05:53.896Z,100.00
2022-12-22T20:08:20.486Z,100.00
2022-12-22T20:10:49.584Z,100.00
2022-12-22T20:13:23.969Z,100.00
2022-12-22T20:15:50.630Z,100.00
2022-12-22T20:18:30.228Z,100.00
2022-12-22T20:21:00.003Z,100.00
2022-12-22T20:23:30.072Z,100.00
2022-12-22T20:26:07.146Z,100.00
2022-12-22T20:28:36.902Z,100.00
2022-12-22T20:31:05.622Z,100.00
2022-12-22T20:33:38.839Z,100.00
2022-12-22T20:36:34.523Z,100.00
2022-12-22T20:39:02.640Z,100.00
2022-12-22T20:41:29.225Z,100.00
2022-12-22T20:43:55.787Z,100.00
2022-12-22T20:46:28.950Z,100.00
2022-12-22T20:48:59.166Z,100.00
2022-12-22T20:51:32.733Z,100.00
2022-12-22T20:54:00.358Z,100.00
2022-12-22T20:56:26.906Z,100.00
2022-12-22T20:58:54.381Z,100.00
2022-12-22T21:01:21.426Z,100.00
2022-12-22T21:03:48.161Z,100.00
2022-12-22T21:06:22.926Z,100.00
2022-12-22T21:08:49.705Z,100.00
2022-12-22T21:11:16.463Z,100.00
2022-12-22T21:13:43.913Z,100.00
2022-12-22T21:16:18.492Z,100.00
2022-12-22T21:18:46.692Z,100.00
2022-12-22T21:21:13.483Z,100.00
2022-12-22T21:23:40.052Z,100.00
2022-12-22T21:26:19.888Z,100.00
2022-12-22T21:28:46.587Z,100.00
2022-12-22T21:31:13.224Z,100.00
2022-12-22T21:33:39.907Z,100.00
2022-12-22T21:36:17.720Z,100.00
2022-12-22T21:38:44.896Z,100.00
2022-12-22T21:41:14.094Z,100.00
2022-12-22T21:43:40.713Z,100.00
2022-12-22T21:46:12.326Z,100.00
2022-12-22T21:48:38.900Z,100.00
2022-12-22T21:51:05.656Z,100.00
2022-12-22T21:53:34.514Z,100.00
2022-12-22T21:56:01.123Z,100.00
2022-12-22T21:58:27.740Z,100.00
2022-12-22T22:00:54.381Z,99.54
2022-12-22T22:03:20.963Z,99.51
2022-12-22T22:05:48.089Z,100.00
2022-12-22T22:08:14.983Z,99.65
2022-12-22T22:10:43.429Z,99.35
2022-12-22T22:13:15.326Z,99.06
2022-12-22T22:15:42.715Z,99.38
2022-12-22T22:18:18.178Z,98.73
2022-12-22T22:20:45.318Z,99.48
2022-12-22T22:23:14.373Z,99.14
2022-12-22T22:25:41.298Z,99.06
2022-12-22T22:28:10.392Z,99.11
2022-12-22T22:30:36.984Z,98.23
2022-12-22T22:33:05.023Z,99.33
2022-12-22T22:35:31.557Z,99.45
2022-12-22T22:37:58.147Z,98.75
2022-12-22T22:40:24.909Z,99.17
2022-12-22T22:42:51.539Z,99.34
2022-12-22T22:45:23.788Z,99.38
2022-12-22T22:47:54.529Z,99.26
2022-12-22T22:50:22.420Z,99.69
2022-12-22T22:52:49.452Z,99.80
2022-12-22T22:55:17.016Z,98.76
2022-12-22T22:57:43.609Z,99.29
2022-12-22T23:00:13.275Z,98.86
2022-12-22T23:02:40.997Z,99.26
2022-12-22T23:05:08.011Z,98.80
2022-12-22T23:07:35.692Z,99.35
2022-12-22T23:10:04.166Z,99.21
2022-12-22T23:12:31.175Z,98.79
2022-12-22T23:14:57.773Z,98.90
2022-12-22T23:17:24.379Z,98.30
2022-12-22T23:19:50.963Z,98.79
2022-12-22T23:22:17.610Z,98.97
2022-12-22T23:24:44.211Z,99.50
2022-12-22T23:27:11.106Z,99.61
2022-12-22T23:29:37.788Z,99.48
2022-12-22T23:32:04.970Z,98.75
2022-12-22T23:34:31.905Z,99.23
2022-12-22T23:36:58.582Z,99.43
2022-12-22T23:39:25.217Z,99.03
2022-12-22T23:41:52.279Z,98.82
2022-12-22T23:44:18.947Z,98.73
2022-12-22T23:46:45.639Z,98.96
2022-12-22T23:49:12.700Z,98.90
2022-12-22T23:51:40.494Z,98.93
2022-12-22T23:54:08.657Z,98.09
2022-12-22T23:56:35.271Z,98.65
2022-12-22T23:59:02.098Z,97.86
